Redwood Falls, Minnesota
Current Conditions -  °F | °C
As of 1:53 PM on Friday 19 Dec 2014 (Local Time) from KRWF Reporting Station
Haze Haze  
Wind Chill: 23°   Ceiling: 1400
Heat Index: 33°   Visibility: 5mi
Dew Point: 28°   Wind: 15mph
Humidity: 82%   Direction: 180°S
Pressure: 30.12"   Gusts: NA
Location:  44.54°N, 95.12°W
Report Text: KRWF 191953Z AUTO 18013KT 5SM HZ OVC014 01/M02 A3012 RMK AO2 SLP212 T00061022
Loading
Personal Weather Stations






























Interactive Weather Map New forecast layout! Learn more

10-Day Weather Forecast

Advertisements
Track Severe Weather on mobile